createdAt,value
2022-10-09T00:00:04.107Z,15.30
2022-10-09T00:02:13.497Z,15.30
2022-10-09T00:04:15.126Z,15.20
2022-10-09T00:06:21.093Z,15.30
2022-10-09T00:08:22.707Z,15.20
2022-10-09T00:10:24.319Z,15.20
2022-10-09T00:12:25.927Z,15.20
2022-10-09T00:14:27.521Z,15.20
2022-10-09T00:16:29.236Z,15.20
2022-10-09T00:18:31.009Z,15.20
2022-10-09T00:20:35.615Z,15.20
2022-10-09T00:22:37.285Z,15.20
2022-10-09T00:24:38.926Z,15.10
2022-10-09T00:26:40.511Z,15.20
2022-10-09T00:28:42.343Z,15.10
2022-10-09T00:30:43.966Z,15.10
2022-10-09T00:32:45.685Z,15.10
2022-10-09T00:34:47.455Z,15.10
2022-10-09T00:36:49.069Z,15.10
2022-10-09T00:38:50.993Z,15.10
2022-10-09T00:40:52.599Z,15.10
2022-10-09T00:42:57.644Z,15.10
2022-10-09T00:45:00.564Z,15.10
2022-10-09T00:47:02.863Z,15.00
2022-10-09T00:49:17.468Z,15.00
2022-10-09T00:51:19.331Z,15.00
2022-10-09T00:53:22.775Z,15.10
2022-10-09T00:55:24.842Z,15.00
2022-10-09T00:57:26.454Z,15.00
2022-10-09T00:59:28.283Z,15.00
2022-10-09T01:01:29.938Z,14.90
2022-10-09T01:03:31.612Z,14.90
2022-10-09T01:05:59.595Z,14.90
2022-10-09T01:08:07.341Z,14.90
2022-10-09T01:10:21.182Z,14.90
2022-10-09T01:12:29.856Z,14.90
2022-10-09T01:14:34.074Z,14.90
2022-10-09T01:16:43.526Z,14.80
2022-10-09T01:18:51.002Z,14.90
2022-10-09T01:20:54.020Z,14.80
2022-10-09T01:23:01.883Z,14.80
2022-10-09T01:25:07.711Z,14.80
2022-10-09T01:27:09.267Z,14.70
2022-10-09T01:29:11.876Z,14.70
2022-10-09T01:31:14.176Z,14.70
2022-10-09T01:33:16.541Z,14.60
2022-10-09T01:35:18.596Z,14.60
2022-10-09T01:37:20.944Z,14.60
2022-10-09T01:39:23.135Z,14.60
2022-10-09T01:41:25.107Z,14.60
2022-10-09T01:43:26.677Z,14.60
2022-10-09T01:45:37.049Z,14.50
2022-10-09T01:47:38.620Z,14.60
2022-10-09T01:49:43.007Z,14.50
2022-10-09T01:51:49.145Z,14.50
2022-10-09T01:53:53.544Z,14.50
2022-10-09T01:56:07.866Z,14.50
2022-10-09T01:58:18.636Z,14.50
2022-10-09T02:00:20.849Z,14.50
2022-10-09T02:02:22.698Z,14.50
2022-10-09T02:04:24.860Z,14.50
2022-10-09T02:06:27.782Z,14.50
2022-10-09T02:08:30.477Z,14.40
2022-10-09T02:10:32.718Z,14.50
2022-10-09T02:12:36.932Z,14.40
2022-10-09T02:14:39.426Z,14.40
2022-10-09T02:16:43.415Z,14.40
2022-10-09T02:18:57.185Z,14.40
2022-10-09T02:21:00.608Z,14.40
2022-10-09T02:23:04.099Z,14.40
2022-10-09T02:25:06.316Z,14.40
2022-10-09T02:27:08.462Z,14.30
2022-10-09T02:29:10.693Z,14.40
2022-10-09T02:31:31.937Z,14.40
2022-10-09T02:33:34.230Z,14.30
2022-10-09T02:35:36.143Z,14.30
2022-10-09T02:37:37.731Z,14.30
2022-10-09T02:39:39.353Z,14.30
2022-10-09T02:41:40.953Z,14.30
2022-10-09T02:43:42.550Z,14.30
2022-10-09T02:45:44.147Z,14.20
2022-10-09T02:47:45.780Z,14.20
2022-10-09T02:49:47.362Z,14.20
2022-10-09T02:51:48.949Z,14.20
2022-10-09T02:53:53.916Z,14.20
2022-10-09T02:55:55.565Z,14.20
2022-10-09T02:57:57.130Z,14.20
2022-10-09T02:59:58.720Z,14.20
2022-10-09T03:02:00.408Z,14.20
2022-10-09T03:04:02.241Z,14.20
2022-10-09T03:06:05.072Z,14.20
2022-10-09T03:08:06.688Z,14.20
2022-10-09T03:10:08.450Z,14.20
2022-10-09T03:12:10.035Z,14.20
2022-10-09T03:14:11.709Z,14.20
2022-10-09T03:16:17.150Z,14.20
2022-10-09T03:18:18.963Z,14.10
2022-10-09T03:20:21.080Z,14.20
2022-10-09T03:22:22.810Z,14.20
2022-10-09T03:24:24.384Z,14.10
2022-10-09T03:26:26.841Z,14.10
2022-10-09T03:28:28.725Z,14.10
2022-10-09T03:30:30.356Z,14.10
2022-10-09T03:32:32.015Z,14.10
2022-10-09T03:34:33.655Z,14.00
2022-10-09T03:36:35.265Z,14.10
2022-10-09T03:38:36.970Z,14.10
2022-10-09T03:40:38.588Z,14.10
2022-10-09T03:42:40.171Z,14.00
2022-10-09T03:44:41.744Z,14.00
2022-10-09T03:46:43.405Z,14.00
2022-10-09T03:48:44.986Z,14.00
2022-10-09T03:50:46.577Z,14.00
2022-10-09T03:52:48.358Z,14.00
2022-10-09T03:54:50.097Z,14.00
2022-10-09T03:56:51.650Z,14.00
2022-10-09T03:58:53.243Z,14.00
2022-10-09T04:00:54.893Z,13.90
2022-10-09T04:02:56.584Z,13.90
2022-10-09T04:04:58.224Z,14.00
2022-10-09T04:06:59.854Z,13.90
2022-10-09T04:09:01.439Z,13.90
2022-10-09T04:11:03.613Z,13.90
2022-10-09T04:13:05.251Z,13.90
2022-10-09T04:15:07.239Z,13.90
2022-10-09T04:17:08.849Z,13.90
2022-10-09T04:19:11.880Z,13.90
2022-10-09T04:21:13.577Z,13.80
2022-10-09T04:23:15.216Z,13.80
2022-10-09T04:25:16.903Z,13.80
2022-10-09T04:27:18.506Z,13.80
2022-10-09T04:29:20.155Z,13.80
2022-10-09T04:31:21.837Z,13.80
2022-10-09T04:33:24.128Z,13.80
2022-10-09T04:35:25.915Z,13.80
2022-10-09T04:37:27.506Z,13.80
2022-10-09T04:39:29.532Z,13.70
2022-10-09T04:41:34.764Z,13.70
2022-10-09T04:43:39.645Z,13.70
2022-10-09T04:45:41.281Z,13.70
2022-10-09T04:47:43.257Z,13.70
2022-10-09T04:49:44.860Z,13.70
2022-10-09T04:51:46.556Z,13.70
2022-10-09T04:53:48.631Z,13.70
2022-10-09T04:55:50.232Z,13.70
2022-10-09T04:57:51.826Z,13.70
2022-10-09T04:59:53.402Z,13.70
2022-10-09T05:01:55.044Z,13.70
2022-10-09T05:03:56.851Z,13.70
2022-10-09T05:06:05.400Z,13.70
2022-10-09T05:08:07.050Z,13.80
2022-10-09T05:10:08.681Z,13.80
2022-10-09T05:12:10.276Z,13.80
2022-10-09T05:14:11.902Z,13.80
2022-10-09T05:16:14.885Z,13.80
2022-10-09T05:18:16.557Z,13.80
2022-10-09T05:20:18.203Z,13.80
2022-10-09T05:22:19.811Z,13.80
2022-10-09T05:24:21.570Z,13.70
2022-10-09T05:26:23.926Z,13.80
2022-10-09T05:28:25.635Z,13.70
2022-10-09T05:30:27.343Z,13.70
2022-10-09T05:32:28.917Z,13.70
2022-10-09T05:34:30.522Z,13.70
2022-10-09T05:36:32.223Z,13.70
2022-10-09T05:38:34.723Z,13.70
2022-10-09T05:40:36.316Z,13.70
2022-10-09T05:42:37.937Z,13.70
2022-10-09T05:44:39.571Z,13.70
2022-10-09T05:46:41.155Z,13.70
2022-10-09T05:48:44.038Z,13.70
2022-10-09T05:50:45.858Z,13.70
2022-10-09T05:52:47.749Z,13.70
2022-10-09T05:54:49.915Z,13.70
2022-10-09T05:56:51.589Z,13.70
2022-10-09T05:58:54.364Z,13.70
2022-10-09T06:00:59.708Z,13.70
2022-10-09T06:03:01.348Z,13.70
2022-10-09T06:05:03.037Z,13.70
2022-10-09T06:07:04.605Z,13.70
2022-10-09T06:09:07.075Z,13.70
2022-10-09T06:11:09.498Z,13.70
2022-10-09T06:13:11.081Z,13.70
2022-10-09T06:15:13.019Z,13.70
2022-10-09T06:17:14.781Z,13.70
2022-10-09T06:19:17.205Z,13.70
2022-10-09T06:21:19.019Z,13.70
2022-10-09T06:23:20.702Z,13.70
2022-10-09T06:25:22.270Z,13.80
2022-10-09T06:27:23.865Z,13.80
2022-10-09T06:29:25.521Z,13.80
2022-10-09T06:31:31.045Z,13.80
2022-10-09T06:33:33.356Z,13.80
2022-10-09T06:35:35.172Z,13.90
2022-10-09T06:37:36.819Z,13.90
2022-10-09T06:39:38.402Z,13.90
2022-10-09T06:41:40.272Z,13.90
2022-10-09T06:44:01.476Z,13.90
2022-10-09T06:46:04.299Z,13.90
2022-10-09T06:48:05.935Z,13.90
2022-10-09T06:50:07.913Z,13.90
2022-10-09T06:52:09.507Z,13.90
2022-10-09T06:54:13.226Z,14.00
2022-10-09T06:56:15.491Z,14.00
2022-10-09T06:58:17.077Z,14.00
2022-10-09T07:00:18.743Z,14.10
2022-10-09T07:02:20.434Z,14.10
2022-10-09T07:04:22.156Z,14.10
2022-10-09T07:06:24.977Z,14.10
2022-10-09T07:08:26.611Z,14.20
2022-10-09T07:10:28.242Z,14.10
2022-10-09T07:12:29.915Z,14.10
2022-10-09T07:14:31.501Z,14.20
2022-10-09T07:16:36.960Z,14.20
2022-10-09T07:18:39.292Z,14.20
2022-10-09T07:20:40.923Z,14.20
2022-10-09T07:22:42.491Z,14.30
2022-10-09T07:24:44.129Z,14.30
2022-10-09T07:26:46.481Z,14.30
2022-10-09T07:28:48.950Z,14.30
2022-10-09T07:30:50.681Z,14.30
2022-10-09T07:32:52.303Z,14.30
2022-10-09T07:34:53.924Z,14.40
2022-10-09T07:36:56.174Z,14.40
2022-10-09T07:38:58.590Z,14.40
2022-10-09T07:41:01.637Z,14.50
2022-10-09T07:43:03.247Z,14.50
2022-10-09T07:45:05.100Z,14.50
2022-10-09T07:47:06.884Z,14.50
2022-10-09T07:49:08.565Z,14.50
2022-10-09T07:51:11.471Z,14.60
2022-10-09T07:53:13.113Z,14.60
2022-10-09T07:55:14.755Z,14.60
2022-10-09T07:57:16.389Z,14.60
2022-10-09T07:59:18.058Z,14.70
2022-10-09T08:01:20.666Z,14.80
2022-10-09T08:03:22.566Z,14.70
2022-10-09T08:05:24.213Z,14.80
2022-10-09T08:07:25.920Z,14.80
2022-10-09T08:09:27.606Z,14.80
2022-10-09T08:11:29.457Z,14.90
2022-10-09T08:13:31.067Z,15.00
2022-10-09T08:15:32.808Z,15.00
2022-10-09T08:17:34.571Z,15.00
2022-10-09T08:19:36.260Z,15.10
2022-10-09T08:21:38.271Z,15.10
2022-10-09T08:23:39.932Z,15.10
2022-10-09T08:25:44.436Z,15.20
2022-10-09T08:27:46.099Z,15.20
2022-10-09T08:29:47.840Z,15.30
2022-10-09T08:31:49.545Z,15.30
2022-10-09T08:33:55.661Z,15.40
2022-10-09T08:36:04.853Z,15.40
2022-10-09T08:38:06.521Z,15.40
2022-10-09T08:40:10.670Z,15.50
2022-10-09T08:44:52.553Z,15.60
2022-10-09T08:47:48.457Z,15.60
2022-10-09T08:50:26.079Z,15.70
2022-10-09T08:53:14.978Z,15.60
2022-10-09T08:58:17.501Z,15.80
2022-10-09T09:03:42.809Z,15.90
2022-10-09T09:06:37.437Z,16.00
2022-10-09T09:12:52.352Z,16.00
2022-10-09T09:15:03.341Z,16.10
2022-10-09T09:17:31.636Z,16.10
2022-10-09T09:19:40.745Z,16.20
2022-10-09T09:21:51.116Z,16.20
2022-10-09T09:23:52.769Z,16.30
2022-10-09T09:25:55.055Z,16.30
2022-10-09T09:28:01.351Z,16.40
2022-10-09T09:30:06.497Z,16.40
2022-10-09T09:32:14.091Z,16.40
2022-10-09T09:34:28.637Z,16.60
2022-10-09T09:36:35.302Z,16.50
2022-10-09T09:38:48.038Z,16.60
2022-10-09T09:40:58.872Z,16.60
2022-10-09T09:43:04.810Z,16.70
2022-10-09T09:45:07.715Z,16.80
2022-10-09T09:47:15.535Z,16.80
2022-10-09T09:49:20.837Z,16.80
2022-10-09T09:51:28.968Z,16.90
2022-10-09T09:53:35.780Z,17.00
2022-10-09T09:55:37.431Z,17.00
2022-10-09T09:57:43.201Z,17.10
2022-10-09T09:59:47.371Z,17.10
2022-10-09T10:01:59.023Z,17.20
2022-10-09T10:04:01.955Z,17.30
2022-10-09T10:06:03.709Z,17.30
2022-10-09T10:08:24.036Z,17.40
2022-10-09T10:10:27.203Z,17.40
2022-10-09T10:12:29.586Z,17.50
2022-10-09T10:14:31.900Z,17.60
2022-10-09T10:16:34.314Z,17.60
2022-10-09T10:18:40.439Z,17.70
2022-10-09T10:20:44.250Z,17.70
2022-10-09T10:22:55.818Z,17.80
2022-10-09T10:24:58.832Z,17.80
2022-10-09T10:27:11.889Z,17.90
2022-10-09T10:29:23.190Z,18.00
2022-10-09T10:31:37.259Z,18.10
2022-10-09T10:33:38.944Z,18.20
2022-10-09T10:35:42.252Z,18.30
2022-10-09T10:37:43.934Z,18.40
2022-10-09T10:39:48.927Z,18.50
2022-10-09T10:41:52.668Z,18.60
2022-10-09T10:43:58.958Z,18.70
2022-10-09T10:46:13.065Z,18.80
2022-10-09T10:48:39.237Z,18.80
2022-10-09T10:50:50.108Z,19.00
2022-10-09T10:52:52.098Z,19.10
2022-10-09T10:54:58.216Z,19.20
2022-10-09T10:57:18.153Z,19.30
2022-10-09T10:59:35.017Z,19.30
2022-10-09T11:01:39.656Z,19.50
2022-10-09T11:03:47.377Z,19.50
2022-10-09T11:05:51.267Z,19.60
2022-10-09T11:08:11.313Z,19.70
2022-10-09T11:10:23.584Z,19.80
2022-10-09T11:12:57.755Z,19.90
2022-10-09T11:15:17.026Z,20.00
2022-10-09T11:17:26.552Z,20.10
2022-10-09T11:19:47.180Z,20.20
2022-10-09T11:22:07.533Z,20.20
2022-10-09T11:24:18.144Z,20.40
2022-10-09T11:26:31.396Z,20.40
2022-10-09T11:28:35.338Z,20.50
2022-10-09T11:30:42.840Z,20.60
2022-10-09T11:32:47.559Z,20.60
2022-10-09T11:34:58.453Z,20.80
2022-10-09T11:37:01.138Z,20.80
2022-10-09T11:39:09.045Z,20.90
2022-10-09T11:41:11.198Z,21.00
2022-10-09T11:43:22.037Z,21.00
2022-10-09T11:45:42.504Z,21.10
2022-10-09T11:47:44.196Z,21.10
2022-10-09T11:50:09.433Z,21.20
2022-10-09T11:52:16.907Z,21.30
2022-10-09T11:54:20.027Z,21.30
2022-10-09T11:56:29.296Z,21.40
2022-10-09T11:58:31.497Z,21.50
2022-10-09T12:00:34.644Z,21.50
2022-10-09T12:02:36.794Z,21.50
2022-10-09T12:04:55.368Z,21.60
2022-10-09T12:06:59.306Z,21.60
2022-10-09T12:09:03.887Z,21.60
2022-10-09T12:11:08.677Z,21.60
2022-10-09T12:13:27.393Z,21.70
2022-10-09T12:15:39.972Z,21.70
2022-10-09T12:17:49.674Z,21.70
2022-10-09T12:20:00.734Z,21.80
2022-10-09T12:22:07.439Z,21.80
2022-10-09T12:24:15.207Z,21.80
2022-10-09T12:26:17.903Z,21.90
2022-10-09T12:28:19.887Z,21.90
2022-10-09T12:30:23.520Z,21.90
2022-10-09T12:32:29.887Z,21.90
2022-10-09T12:34:33.624Z,22.00
2022-10-09T12:36:35.313Z,22.00
2022-10-09T12:38:37.025Z,22.10
2022-10-09T12:40:44.466Z,22.10
2022-10-09T12:42:46.415Z,22.10
2022-10-09T12:44:51.919Z,22.20
2022-10-09T12:46:53.849Z,22.20
2022-10-09T12:48:55.553Z,22.20
2022-10-09T12:50:57.343Z,22.30
2022-10-09T12:53:00.487Z,22.40
2022-10-09T12:55:02.516Z,22.40
2022-10-09T12:57:04.258Z,22.30
2022-10-09T12:59:07.031Z,22.40
2022-10-09T13:01:13.555Z,22.40
2022-10-09T13:03:34.766Z,22.40
2022-10-09T13:05:37.588Z,22.40
2022-10-09T13:07:39.344Z,22.40
2022-10-09T13:09:41.084Z,22.40
2022-10-09T13:11:44.643Z,22.40
2022-10-09T13:13:53.598Z,22.40
2022-10-09T13:15:59.734Z,22.40
2022-10-09T13:18:12.454Z,22.40
2022-10-09T13:20:17.244Z,22.50
2022-10-09T13:22:20.935Z,22.50
2022-10-09T13:24:22.593Z,22.50
2022-10-09T13:26:25.751Z,22.50
2022-10-09T13:28:27.703Z,22.50
2022-10-09T13:30:30.325Z,22.50
2022-10-09T13:32:32.336Z,22.50
2022-10-09T13:34:34.032Z,22.50
2022-10-09T13:36:35.678Z,22.50
2022-10-09T13:38:37.359Z,22.50
2022-10-09T13:40:39.100Z,22.60
2022-10-09T13:42:40.970Z,22.60
2022-10-09T13:44:42.693Z,22.60
2022-10-09T13:46:44.346Z,22.60
2022-10-09T13:48:45.985Z,22.70
2022-10-09T13:50:47.737Z,22.70
2022-10-09T13:52:49.397Z,22.70
2022-10-09T13:54:51.066Z,22.80
2022-10-09T13:56:52.840Z,22.80
2022-10-09T13:58:54.667Z,22.90
2022-10-09T14:00:56.501Z,22.90
2022-10-09T14:02:58.090Z,22.90
2022-10-09T14:04:59.735Z,23.00
2022-10-09T14:07:01.379Z,23.10
2022-10-09T14:09:06.450Z,23.10
2022-10-09T14:11:08.195Z,23.10
2022-10-09T14:13:10.522Z,23.20
2022-10-09T14:15:12.163Z,23.20
2022-10-09T14:17:13.773Z,23.20
2022-10-09T14:19:15.425Z,23.30
2022-10-09T14:21:17.253Z,23.40
2022-10-09T14:23:18.873Z,23.40
2022-10-09T14:25:20.592Z,23.40
2022-10-09T14:27:22.248Z,23.40
2022-10-09T14:29:23.974Z,23.50
2022-10-09T14:31:25.620Z,23.50
2022-10-09T14:33:27.350Z,23.50
2022-10-09T14:35:29.868Z,23.60
2022-10-09T14:37:46.899Z,23.70
2022-10-09T14:39:48.547Z,23.70
2022-10-09T14:41:50.174Z,23.70
2022-10-09T14:43:56.625Z,23.70
2022-10-09T14:46:02.916Z,23.70
2022-10-09T14:48:04.671Z,23.80
2022-10-09T14:50:06.724Z,23.80
2022-10-09T14:52:08.414Z,23.80
2022-10-09T14:54:11.112Z,23.90
2022-10-09T14:56:14.405Z,23.90
2022-10-09T14:58:16.089Z,23.90
2022-10-09T15:00:17.867Z,24.00
2022-10-09T15:02:19.626Z,24.00
2022-10-09T15:04:21.311Z,24.00
2022-10-09T15:06:25.715Z,24.00
2022-10-09T15:08:29.434Z,24.00
2022-10-09T15:10:31.332Z,24.10
2022-10-09T15:12:33.031Z,24.10
2022-10-09T15:14:34.675Z,24.10
2022-10-09T15:16:36.433Z,24.10
2022-10-09T15:18:38.484Z,24.00
2022-10-09T15:20:40.190Z,24.00
2022-10-09T15:22:41.961Z,23.90
2022-10-09T15:24:43.621Z,23.80
2022-10-09T15:26:45.311Z,23.80
2022-10-09T15:28:47.135Z,23.70
2022-10-09T15:30:50.582Z,23.50
2022-10-09T15:32:52.276Z,23.50
2022-10-09T15:34:53.953Z,23.40
2022-10-09T15:36:55.575Z,23.30
2022-10-09T15:38:57.250Z,23.20
2022-10-09T15:40:58.938Z,23.10
2022-10-09T15:43:00.588Z,23.00
2022-10-09T15:45:02.875Z,22.90
2022-10-09T15:47:04.597Z,22.80
2022-10-09T15:49:06.683Z,22.70
2022-10-09T15:51:13.209Z,22.60
2022-10-09T15:53:15.409Z,22.50
2022-10-09T15:55:17.133Z,22.40
2022-10-09T15:57:18.766Z,22.30
2022-10-09T15:59:20.486Z,22.20
2022-10-09T16:01:22.954Z,22.10
2022-10-09T16:03:24.741Z,22.00
2022-10-09T16:05:26.417Z,22.00
2022-10-09T16:07:28.062Z,21.90
2022-10-09T16:09:36.540Z,21.70
2022-10-09T16:11:38.311Z,21.70
2022-10-09T16:13:41.658Z,21.60
2022-10-09T16:15:49.601Z,21.50
2022-10-09T16:17:51.405Z,21.40
2022-10-09T16:19:53.018Z,21.40
2022-10-09T16:21:54.696Z,21.20
2022-10-09T16:23:59.157Z,21.10
2022-10-09T16:26:01.923Z,21.10
2022-10-09T16:28:04.142Z,21.00
2022-10-09T16:30:06.161Z,20.90
2022-10-09T16:32:07.815Z,20.90
2022-10-09T16:34:09.480Z,20.80
2022-10-09T16:36:11.973Z,20.70
2022-10-09T16:38:14.085Z,20.60
2022-10-09T16:40:15.722Z,20.60
2022-10-09T16:42:17.443Z,20.40
2022-10-09T16:44:19.158Z,20.40
2022-10-09T16:46:28.236Z,20.30
2022-10-09T16:48:29.885Z,20.20
2022-10-09T16:50:31.581Z,20.20
2022-10-09T16:52:33.607Z,20.20
2022-10-09T16:54:35.308Z,20.00
2022-10-09T16:56:38.400Z,20.00
2022-10-09T16:58:40.485Z,19.90
2022-10-09T17:00:42.228Z,19.90
2022-10-09T17:02:43.933Z,19.80
2022-10-09T17:04:46.131Z,19.70
2022-10-09T17:06:47.889Z,19.70
2022-10-09T17:08:53.307Z,19.60
2022-10-09T17:10:55.000Z,19.50
2022-10-09T17:12:56.761Z,19.50
2022-10-09T17:14:58.434Z,19.40
2022-10-09T17:17:00.119Z,19.30
2022-10-09T17:19:02.161Z,19.20
2022-10-09T17:21:04.722Z,19.20
2022-10-09T17:23:06.513Z,19.10
2022-10-09T17:25:08.449Z,19.10
2022-10-09T17:27:10.152Z,19.00
2022-10-09T17:29:12.817Z,19.00
2022-10-09T17:31:16.365Z,18.90
2022-10-09T17:33:19.891Z,18.90
2022-10-09T17:35:21.847Z,18.80
2022-10-09T17:37:23.640Z,18.70
2022-10-09T17:39:25.403Z,18.70
2022-10-09T17:41:27.679Z,18.60
2022-10-09T17:43:29.338Z,18.60
2022-10-09T17:45:33.741Z,18.50
2022-10-09T17:47:38.013Z,18.50
2022-10-09T17:49:39.709Z,18.40
2022-10-09T17:51:41.455Z,18.40
2022-10-09T17:53:43.449Z,18.30
2022-10-09T17:55:45.507Z,18.30
2022-10-09T17:57:47.610Z,18.20
2022-10-09T17:59:49.654Z,18.20
2022-10-09T18:01:51.409Z,18.10
2022-10-09T18:03:53.443Z,18.10
2022-10-09T18:05:55.112Z,18.10
2022-10-09T18:07:57.052Z,18.00
2022-10-09T18:09:58.761Z,17.90
2022-10-09T18:12:00.521Z,17.90
2022-10-09T18:14:03.799Z,17.90
2022-10-09T18:16:06.595Z,17.90
2022-10-09T18:18:08.665Z,17.80
2022-10-09T18:20:10.416Z,17.80
2022-10-09T18:22:12.097Z,17.70
2022-10-09T18:24:14.075Z,17.70
2022-10-09T18:26:16.947Z,17.70
2022-10-09T18:28:19.518Z,17.70
2022-10-09T18:30:21.456Z,17.60
2022-10-09T18:32:23.464Z,17.60
2022-10-09T18:34:26.388Z,17.50
2022-10-09T18:36:31.693Z,17.50
2022-10-09T18:38:33.844Z,17.50
2022-10-09T18:40:45.232Z,17.50
2022-10-09T18:42:48.161Z,17.50
2022-10-09T18:44:50.231Z,17.40
2022-10-09T18:46:53.994Z,17.40
2022-10-09T18:48:55.803Z,17.40
2022-10-09T18:50:58.182Z,17.40
2022-10-09T18:53:00.211Z,17.40
2022-10-09T18:55:02.623Z,17.40
2022-10-09T18:57:04.624Z,17.30
2022-10-09T18:59:08.918Z,17.30
2022-10-09T19:01:10.698Z,17.30
2022-10-09T19:03:12.401Z,17.30
2022-10-09T19:05:14.298Z,17.30
2022-10-09T19:07:16.015Z,17.30
2022-10-09T19:09:17.788Z,17.30
2022-10-09T19:11:19.526Z,17.30
2022-10-09T19:13:21.409Z,17.20
2022-10-09T19:15:23.126Z,17.20
2022-10-09T19:17:24.858Z,17.20
2022-10-09T19:19:26.507Z,17.20
2022-10-09T19:21:28.428Z,17.30
2022-10-09T19:23:30.168Z,17.30
2022-10-09T19:25:31.932Z,17.20
2022-10-09T19:27:33.920Z,17.30
2022-10-09T19:29:35.770Z,17.20
2022-10-09T19:31:37.457Z,17.20
2022-10-09T19:33:41.799Z,17.20
2022-10-09T19:35:54.251Z,17.20
2022-10-09T19:37:55.899Z,17.20
2022-10-09T19:39:57.642Z,17.20
2022-10-09T19:41:59.334Z,17.20
2022-10-09T19:44:01.130Z,17.20
2022-10-09T19:46:08.230Z,17.20
2022-10-09T19:48:10.394Z,17.20
2022-10-09T19:50:15.003Z,17.10
2022-10-09T19:52:17.036Z,17.10
2022-10-09T19:54:19.037Z,17.10
2022-10-09T19:56:26.206Z,17.10
2022-10-09T19:58:28.106Z,17.10
2022-10-09T20:00:29.958Z,17.10
2022-10-09T20:02:31.653Z,17.10
2022-10-09T20:04:33.730Z,17.10
2022-10-09T20:06:40.614Z,17.00
2022-10-09T20:08:42.918Z,17.00
2022-10-09T20:10:47.073Z,17.00
2022-10-09T20:12:49.355Z,17.00
2022-10-09T20:14:51.317Z,17.00
2022-10-09T20:16:53.036Z,17.00
2022-10-09T20:18:55.268Z,17.00
2022-10-09T20:20:57.268Z,17.00
2022-10-09T20:22:58.978Z,17.00
2022-10-09T20:25:00.623Z,17.00
2022-10-09T20:27:02.298Z,17.00
2022-10-09T20:29:04.270Z,17.00
2022-10-09T20:31:07.840Z,17.00
2022-10-09T20:33:09.607Z,16.90
2022-10-09T20:35:11.233Z,16.90
2022-10-09T20:37:12.912Z,16.90
2022-10-09T20:39:15.291Z,16.90
2022-10-09T20:41:16.963Z,16.90
2022-10-09T20:43:18.655Z,16.90
2022-10-09T20:45:20.346Z,16.90
2022-10-09T20:47:22.033Z,16.80
2022-10-09T20:49:23.687Z,16.80
2022-10-09T20:51:25.351Z,16.80
2022-10-09T20:53:27.165Z,16.80
2022-10-09T20:55:30.522Z,16.80
2022-10-09T20:57:32.252Z,16.70
2022-10-09T20:59:34.000Z,16.70
2022-10-09T21:01:36.849Z,16.70
2022-10-09T21:03:39.232Z,16.70
2022-10-09T21:05:42.297Z,16.70
2022-10-09T21:07:44.186Z,16.70
2022-10-09T21:09:45.866Z,16.60
2022-10-09T21:11:47.538Z,16.60
2022-10-09T21:13:49.943Z,16.60
2022-10-09T21:15:51.689Z,16.60
2022-10-09T21:17:53.354Z,16.50
2022-10-09T21:19:56.441Z,16.50
2022-10-09T21:21:58.119Z,16.50
2022-10-09T21:24:00.129Z,16.50
2022-10-09T21:26:02.448Z,16.50
2022-10-09T21:28:05.237Z,16.50
2022-10-09T21:30:07.445Z,16.50
2022-10-09T21:32:09.152Z,16.50
2022-10-09T21:34:10.833Z,16.50
2022-10-09T21:36:17.735Z,16.40
2022-10-09T21:38:20.228Z,16.40
2022-10-09T21:40:23.769Z,16.40
2022-10-09T21:42:25.404Z,16.40
2022-10-09T21:44:27.548Z,16.40
2022-10-09T21:46:29.729Z,16.40
2022-10-09T21:48:31.371Z,16.40
2022-10-09T21:50:33.484Z,16.30
2022-10-09T21:52:35.106Z,16.30
2022-10-09T21:54:36.984Z,16.30
2022-10-09T21:56:38.624Z,16.20
2022-10-09T21:58:48.112Z,16.30
2022-10-09T22:00:57.764Z,16.20
2022-10-09T22:02:59.537Z,16.20
2022-10-09T22:05:01.110Z,16.20
2022-10-09T22:07:02.768Z,16.10
2022-10-09T22:09:04.458Z,16.10
2022-10-09T22:11:06.901Z,16.10
2022-10-09T22:13:08.521Z,16.00
2022-10-09T22:15:10.363Z,16.00
2022-10-09T22:17:11.965Z,16.00
2022-10-09T22:19:13.656Z,16.00
2022-10-09T22:21:15.717Z,15.90
2022-10-09T22:23:18.439Z,15.90
2022-10-09T22:25:20.141Z,15.90
2022-10-09T22:27:21.788Z,15.90
2022-10-09T22:29:23.946Z,15.80
2022-10-09T22:31:26.196Z,15.90
2022-10-09T22:33:27.947Z,15.80
2022-10-09T22:35:29.587Z,15.80
2022-10-09T22:37:31.189Z,15.80
2022-10-09T22:39:33.203Z,15.80
2022-10-09T22:41:35.968Z,15.80
2022-10-09T22:43:38.072Z,15.70
2022-10-09T22:45:39.677Z,15.70
2022-10-09T22:47:41.315Z,15.70
2022-10-09T22:49:42.948Z,15.70
2022-10-09T22:51:44.846Z,15.70
2022-10-09T22:53:46.686Z,15.70
2022-10-09T22:55:48.336Z,15.70
2022-10-09T22:57:49.923Z,15.60
2022-10-09T22:59:51.518Z,15.60
2022-10-09T23:01:54.895Z,15.60
2022-10-09T23:03:57.290Z,15.60
2022-10-09T23:06:12.303Z,15.50
2022-10-09T23:08:13.922Z,15.50
2022-10-09T23:10:15.607Z,15.50
2022-10-09T23:12:17.264Z,15.50
2022-10-09T23:14:20.027Z,15.50
2022-10-09T23:16:22.017Z,15.50
2022-10-09T23:18:23.656Z,15.50
2022-10-09T23:20:25.256Z,15.50
2022-10-09T23:22:26.854Z,15.40
2022-10-09T23:24:31.231Z,15.40
2022-10-09T23:26:34.050Z,15.40
2022-10-09T23:28:36.204Z,15.40
2022-10-09T23:30:37.929Z,15.40
2022-10-09T23:32:39.558Z,15.40
2022-10-09T23:34:41.157Z,15.40
2022-10-09T23:36:42.829Z,15.30
2022-10-09T23:38:44.878Z,15.30
2022-10-09T23:41:02.704Z,15.40
2022-10-09T23:43:04.388Z,15.30
2022-10-09T23:45:06.372Z,15.40
2022-10-09T23:47:07.994Z,15.30
2022-10-09T23:49:10.032Z,15.30
2022-10-09T23:51:11.824Z,15.30
2022-10-09T23:53:13.446Z,15.30
2022-10-09T23:55:15.094Z,15.30
2022-10-09T23:57:16.867Z,15.30
2022-10-09T23:59:18.585Z,15.30
